Time;durP1;ratioP1;P1;durP2;ratioP2;P2;SDS_P1;SDS_P2;PMS_P1;PMS_P2;Temp;Humidity;BMP_temperature;BMP_pressure;BME280_temperature;BME280_humidity;BME280_pressure;Samples;Min_cycle;Max_cycle;Signal;HPM_P1;HPM_P2
2022/01/01 00:02:21;;;;;;;23.42;12.27;;;;;;;;;;5045922;28;20124;-82
2022/01/01 00:04:47;;;;;;;31.13;11.80;;;;;;;;;;5061944;28;20447;-81
2022/01/01 00:07:14;;;;;;;31.02;12.05;;;;;;;;;;5062269;28;20461;-81
2022/01/01 00:09:40;;;;;;;27.75;12.60;;;;;;;;;;5062290;28;20065;-82
2022/01/01 00:12:07;;;;;;;25.27;11.32;;;;;;;;;;5044050;28;20045;-83
2022/01/01 00:14:33;;;;;;;26.55;13.38;;;;;;;;;;5060047;28;20036;-84
2022/01/01 00:16:59;;;;;;;25.38;12.98;;;;;;;;;;5060727;28;20037;-80
2022/01/01 00:19:25;;;;;;;31.73;13.20;;;;;;;;;;5044275;28;20045;-84
2022/01/01 00:21:51;;;;;;;31.70;13.90;;;;;;;;;;5044099;28;20040;-84
2022/01/01 00:24:17;;;;;;;28.60;14.15;;;;;;;;;;5062080;28;20041;-83
2022/01/01 00:26:43;;;;;;;27.33;13.77;;;;;;;;;;5062173;28;20059;-82
2022/01/01 00:29:09;;;;;;;28.92;13.60;;;;;;;;;;5046707;28;20106;-84
2022/01/01 00:31:35;;;;;;;29.92;14.38;;;;;;;;;;5065107;28;20100;-83
2022/01/01 00:34:01;;;;;;;30.30;14.55;;;;;;;;;;5045864;28;20040;-82
2022/01/01 00:36:27;;;;;;;33.13;14.70;;;;;;;;;;5044936;28;20112;-83
2022/01/01 00:38:53;;;;;;;32.30;14.88;;;;;;;;;;5062887;28;20041;-83
2022/01/01 00:41:19;;;;;;;25.75;14.90;;;;;;;;;;5063854;28;20035;-82
2022/01/01 00:43:45;;;;;;;31.48;15.95;;;;;;;;;;5051818;28;20041;-84
2022/01/01 00:46:11;;;;;;;31.17;14.88;;;;;;;;;;5027421;28;20051;-84
2022/01/01 00:48:37;;;;;;;34.60;16.38;;;;;;;;;;5031528;28;20061;-83
2022/01/01 00:51:03;;;;;;;40.20;15.85;;;;;;;;;;5031412;28;20064;-83
2022/01/01 00:53:29;;;;;;;31.08;16.20;;;;;;;;;;5031347;28;20038;-83
2022/01/01 00:55:55;;;;;;;32.92;16.77;;;;;;;;;;5027719;28;20076;-84
2022/01/01 00:58:21;;;;;;;36.85;18.05;;;;;;;;;;5028962;28;20068;-85
2022/01/01 01:00:47;;;;;;;37.40;18.40;;;;;;;;;;5029437;28;20045;-84
2022/01/01 01:03:14;;;;;;;39.00;18.73;;;;;;;;;;5033262;28;20124;-82
2022/01/01 01:05:41;;;;;;;36.25;18.13;;;;;;;;;;5050614;28;20049;-84
2022/01/01 01:08:07;;;;;;;39.22;19.05;;;;;;;;;;5031807;28;20121;-84
2022/01/01 01:10:33;;;;;;;36.60;18.05;;;;;;;;;;5030957;28;20071;-84
2022/01/01 01:12:59;;;;;;;39.33;18.48;;;;;;;;;;5031366;28;20373;-85
2022/01/01 01:15:25;;;;;;;40.13;18.75;;;;;;;;;;5047284;28;20038;-83
2022/01/01 01:17:52;;;;;;;46.20;19.13;;;;;;;;;;5029663;28;20040;-83
2022/01/01 01:20:18;;;;;;;36.97;18.20;;;;;;;;;;5028387;28;20042;-83
2022/01/01 01:22:44;;;;;;;38.85;17.50;;;;;;;;;;5028817;28;20041;-83
2022/01/01 01:25:10;;;;;;;40.60;18.80;;;;;;;;;;5028859;28;20053;-84
2022/01/01 01:27:37;;;;;;;34.05;17.80;;;;;;;;;;5029077;28;20097;-83
2022/01/01 01:30:08;;;;;;;36.63;16.52;;;;;;;;;;5044330;28;20052;-84
2022/01/01 01:32:34;;;;;;;35.05;17.80;;;;;;;;;;5028319;28;20061;-84
2022/01/01 01:34:59;;;;;;;35.35;16.80;;;;;;;;;;5044180;28;20396;-84
2022/01/01 01:37:26;;;;;;;33.88;16.23;;;;;;;;;;5044829;28;20128;-83
2022/01/01 01:39:52;;;;;;;30.40;15.65;;;;;;;;;;5029846;28;20118;-83
2022/01/01 01:42:18;;;;;;;35.80;15.55;;;;;;;;;;5045052;28;20457;-83
2022/01/01 01:44:47;;;;;;;31.50;14.55;;;;;;;;;;5044601;28;20087;-83
2022/01/01 01:47:16;;;;;;;32.10;14.20;;;;;;;;;;5028299;28;20037;-83
2022/01/01 01:49:43;;;;;;;37.70;14.80;;;;;;;;;;5026030;28;20124;-83
2022/01/01 01:52:11;;;;;;;36.38;13.77;;;;;;;;;;5028773;28;20045;-84
2022/01/01 01:54:38;;;;;;;34.30;14.18;;;;;;;;;;5024536;28;20042;-83
2022/01/01 01:57:04;;;;;;;27.23;13.43;;;;;;;;;;5010942;28;20046;-84
2022/01/01 01:59:30;;;;;;;31.13;13.50;;;;;;;;;;5011445;28;20042;-85
2022/01/01 02:01:56;;;;;;;28.48;13.20;;;;;;;;;;5011156;28;20052;-85
2022/01/01 02:04:22;;;;;;;35.35;13.50;;;;;;;;;;5012020;28;20065;-85
2022/01/01 02:06:48;;;;;;;25.55;12.52;;;;;;;;;;5012066;28;20046;-83
2022/01/01 02:09:14;;;;;;;28.70;12.68;;;;;;;;;;5009523;28;20069;-84
2022/01/01 02:11:40;;;;;;;27.98;12.60;;;;;;;;;;5024162;28;20037;-82
2022/01/01 02:14:16;;;;;;;30.15;12.75;;;;;;;;;;5007288;28;20042;-85
2022/01/01 02:19:24;;;;;;;33.17;12.38;;;;;;;;;;5025037;28;20037;-82
2022/01/01 02:21:51;;;;;;;29.80;12.52;;;;;;;;;;5011031;28;20073;-83
2022/01/01 02:24:17;;;;;;;28.60;12.65;;;;;;;;;;5010918;28;20052;-84
2022/01/01 02:26:43;;;;;;;28.25;13.60;;;;;;;;;;5024985;28;20061;-84
2022/01/01 02:29:10;;;;;;;27.02;13.10;;;;;;;;;;5026413;28;20050;-82
2022/01/01 02:31:36;;;;;;;34.80;13.38;;;;;;;;;;5027762;28;20053;-86
2022/01/01 02:34:06;;;;;;;32.17;14.00;;;;;;;;;;5024791;28;20042;-83
2022/01/01 02:36:33;;;;;;;37.00;14.45;;;;;;;;;;5024567;28;20038;-83
2022/01/01 02:38:59;;;;;;;31.08;14.80;;;;;;;;;;5025362;28;20092;-83
2022/01/01 02:41:26;;;;;;;29.27;14.65;;;;;;;;;;5009442;28;20092;-85
2022/01/01 02:43:53;;;;;;;27.20;14.65;;;;;;;;;;5010362;28;20119;-84
2022/01/01 02:46:19;;;;;;;28.63;14.98;;;;;;;;;;5025644;28;20062;-83
2022/01/01 02:48:45;;;;;;;26.83;14.63;;;;;;;;;;5020611;28;20060;-83
2022/01/01 02:51:11;;;;;;;31.20;14.52;;;;;;;;;;5045694;28;20349;-84
2022/01/01 02:53:37;;;;;;;32.30;14.88;;;;;;;;;;5047098;28;20048;-84
2022/01/01 02:56:03;;;;;;;30.33;15.57;;;;;;;;;;5029424;28;20052;-81
2022/01/01 02:58:30;;;;;;;34.65;15.27;;;;;;;;;;5029337;28;20042;-85
2022/01/01 03:00:56;;;;;;;30.90;14.50;;;;;;;;;;5044678;28;20052;-82
2022/01/01 03:03:22;;;;;;;31.42;14.85;;;;;;;;;;5043080;28;20064;-84
2022/01/01 03:05:48;;;;;;;34.30;14.35;;;;;;;;;;5043908;28;20056;-83
2022/01/01 03:08:14;;;;;;;31.33;14.60;;;;;;;;;;5045203;28;20503;-83
2022/01/01 03:10:40;;;;;;;32.78;14.00;;;;;;;;;;5026777;28;20046;-82
2022/01/01 03:13:06;;;;;;;28.55;14.18;;;;;;;;;;5028624;28;20096;-82
2022/01/01 03:15:32;;;;;;;30.88;13.43;;;;;;;;;;5027744;28;20030;-82
2022/01/01 03:17:58;;;;;;;29.15;13.57;;;;;;;;;;5027700;28;20428;-83
2022/01/01 03:20:24;;;;;;;31.52;13.45;;;;;;;;;;5027472;28;20037;-82
2022/01/01 03:22:50;;;;;;;29.75;13.75;;;;;;;;;;5044718;28;20038;-83
2022/01/01 03:25:16;;;;;;;30.85;14.75;;;;;;;;;;5029672;28;20073;-83
2022/01/01 03:27:42;;;;;;;30.90;15.05;;;;;;;;;;5045228;28;20048;-84
2022/01/01 03:30:08;;;;;;;31.83;16.45;;;;;;;;;;5026682;28;20060;-83
2022/01/01 03:32:34;;;;;;;34.15;16.95;;;;;;;;;;5026103;28;20065;-83
2022/01/01 03:35:00;;;;;;;41.95;17.65;;;;;;;;;;5027954;28;20333;-83
2022/01/01 03:37:26;;;;;;;35.90;17.80;;;;;;;;;;5028809;28;20041;-81
2022/01/01 03:39:52;;;;;;;43.97;17.98;;;;;;;;;;5045781;28;20037;-84
2022/01/01 03:42:18;;;;;;;35.33;16.38;;;;;;;;;;5046424;28;20041;-84
2022/01/01 03:44:44;;;;;;;31.65;16.48;;;;;;;;;;5029157;28;20045;-85
2022/01/01 03:47:10;;;;;;;37.67;17.25;;;;;;;;;;5033763;28;20041;-83
2022/01/01 03:49:37;;;;;;;34.13;15.68;;;;;;;;;;5048853;28;20049;-84
2022/01/01 03:52:03;;;;;;;38.15;16.80;;;;;;;;;;5028609;28;20048;-84
2022/01/01 03:54:29;;;;;;;36.80;16.27;;;;;;;;;;5028945;28;20063;-82
2022/01/01 03:56:56;;;;;;;35.50;15.98;;;;;;;;;;5049734;28;20037;-82
2022/01/01 03:59:22;;;;;;;34.08;15.55;;;;;;;;;;5054373;28;20072;-84
2022/01/01 04:01:48;;;;;;;36.80;15.43;;;;;;;;;;5038227;28;20021;-83
2022/01/01 04:04:14;;;;;;;33.53;14.80;;;;;;;;;;5041493;28;20084;-80
2022/01/01 04:06:40;;;;;;;30.30;15.30;;;;;;;;;;5044743;28;20037;-83
2022/01/01 04:09:05;;;;;;;32.92;15.27;;;;;;;;;;5041266;28;20053;-84
2022/01/01 04:11:31;;;;;;;28.90;14.15;;;;;;;;;;5024924;28;20040;-85
2022/01/01 04:13:57;;;;;;;36.13;15.07;;;;;;;;;;5042068;28;20068;-83
2022/01/01 04:16:23;;;;;;;31.77;14.48;;;;;;;;;;5025002;28;20034;-83
2022/01/01 04:18:50;;;;;;;29.58;13.63;;;;;;;;;;5026213;28;20338;-84
2022/01/01 04:21:16;;;;;;;32.25;14.55;;;;;;;;;;5044812;28;20065;-81
2022/01/01 04:23:42;;;;;;;31.05;14.55;;;;;;;;;;5049647;28;20045;-84
2022/01/01 04:26:09;;;;;;;26.27;13.65;;;;;;;;;;5049830;28;20045;-83
2022/01/01 04:28:35;;;;;;;27.25;13.35;;;;;;;;;;5048465;28;20089;-83
2022/01/01 04:31:01;;;;;;;29.02;13.10;;;;;;;;;;5049811;28;20061;-83
2022/01/01 04:33:27;;;;;;;29.58;13.25;;;;;;;;;;5034755;28;20381;-82
2022/01/01 04:35:53;;;;;;;29.02;13.65;;;;;;;;;;5035916;28;20097;-83
2022/01/01 04:40:54;;;;;;;25.50;13.52;;;;;;;;;;5053671;28;20037;-83
2022/01/01 04:43:20;;;;;;;31.40;14.10;;;;;;;;;;5052613;28;20104;-82
2022/01/01 04:45:46;;;;;;;29.75;13.10;;;;;;;;;;5043486;28;20461;-83
2022/01/01 04:48:12;;;;;;;23.90;12.02;;;;;;;;;;5025619;28;20089;-84
2022/01/01 04:50:38;;;;;;;25.67;12.18;;;;;;;;;;5033407;28;20060;-82
2022/01/01 04:53:04;;;;;;;24.95;11.70;;;;;;;;;;5041769;28;20048;-80
2022/01/01 04:55:30;;;;;;;27.98;11.65;;;;;;;;;;5031866;28;20116;-83
2022/01/01 04:57:56;;;;;;;26.75;11.00;;;;;;;;;;5026348;28;20033;-83
2022/01/01 05:00:22;;;;;;;24.10;10.88;;;;;;;;;;5027447;28;20044;-83
2022/01/01 05:02:48;;;;;;;29.65;10.85;;;;;;;;;;5040970;28;20044;-83
2022/01/01 05:05:15;;;;;;;22.55;9.57;;;;;;;;;;5025698;28;20037;-82
2022/01/01 05:07:43;;;;;;;25.35;9.73;;;;;;;;;;5025760;28;20045;-82
2022/01/01 05:10:09;;;;;;;19.17;8.85;;;;;;;;;;5041595;28;20048;-85
2022/01/01 05:12:36;;;;;;;21.10;9.02;;;;;;;;;;5024932;28;20050;-83
2022/01/01 05:15:02;;;;;;;21.58;8.60;;;;;;;;;;5039643;28;20039;-84
2022/01/01 05:17:28;;;;;;;21.27;8.77;;;;;;;;;;5040817;28;20405;-82
2022/01/01 05:19:54;;;;;;;20.77;8.80;;;;;;;;;;5025546;28;20033;-82
2022/01/01 05:22:20;;;;;;;19.80;8.25;;;;;;;;;;5025000;28;20365;-82
2022/01/01 05:24:46;;;;;;;26.50;8.10;;;;;;;;;;5024867;28;20105;-81
2022/01/01 05:27:12;;;;;;;20.50;8.02;;;;;;;;;;5041297;28;20042;-82
2022/01/01 05:29:38;;;;;;;18.70;7.55;;;;;;;;;;5026261;28;20052;-86
2022/01/01 05:32:04;;;;;;;21.08;8.25;;;;;;;;;;5028278;28;20097;-85
2022/01/01 05:34:30;;;;;;;23.90;7.82;;;;;;;;;;5028332;28;20048;-83
2022/01/01 05:36:56;;;;;;;18.98;7.78;;;;;;;;;;5028749;28;20033;-83
2022/01/01 05:39:22;;;;;;;21.33;7.82;;;;;;;;;;5034845;28;20089;-82
2022/01/01 05:41:52;;;;;;;17.60;7.60;;;;;;;;;;5044413;28;20037;-82
2022/01/01 05:44:18;;;;;;;21.77;8.00;;;;;;;;;;5035095;28;20072;-83
2022/01/01 05:46:44;;;;;;;22.45;7.70;;;;;;;;;;5027598;28;20041;-83
2022/01/01 05:49:10;;;;;;;19.33;7.28;;;;;;;;;;5028248;28;20377;-83
2022/01/01 05:51:36;;;;;;;18.48;7.70;;;;;;;;;;5044068;28;20045;-83
2022/01/01 05:54:02;;;;;;;17.65;7.70;;;;;;;;;;5045473;28;20037;-82
2022/01/01 05:56:28;;;;;;;18.10;7.40;;;;;;;;;;5028044;28;20045;-85
2022/01/01 05:58:54;;;;;;;20.40;7.35;;;;;;;;;;5027787;28;20033;-83
2022/01/01 06:01:20;;;;;;;23.55;7.95;;;;;;;;;;5044732;28;20038;-83
2022/01/01 06:03:46;;;;;;;21.02;7.53;;;;;;;;;;5041433;28;20041;-83
2022/01/01 06:06:12;;;;;;;18.23;7.53;;;;;;;;;;5041147;28;20095;-81
2022/01/01 06:08:38;;;;;;;19.20;7.18;;;;;;;;;;5024173;28;20041;-83
2022/01/01 06:11:04;;;;;;;20.30;7.47;;;;;;;;;;5042341;28;20369;-83
2022/01/01 06:13:30;;;;;;;20.50;8.07;;;;;;;;;;5025564;28;20045;-81
2022/01/01 06:15:56;;;;;;;19.55;7.53;;;;;;;;;;5041335;28;20033;-83
2022/01/01 06:18:22;;;;;;;17.98;7.43;;;;;;;;;;5041374;28;20041;-82
2022/01/01 06:20:48;;;;;;;20.75;7.57;;;;;;;;;;5026036;28;20039;-82
2022/01/01 06:23:14;;;;;;;19.95;7.95;;;;;;;;;;5027004;28;20041;-83
2022/01/01 06:25:40;;;;;;;18.83;7.40;;;;;;;;;;5028917;28;20128;-83
2022/01/01 06:28:06;;;;;;;22.05;7.68;;;;;;;;;;5047515;28;20087;-82
2022/01/01 06:30:33;;;;;;;16.98;7.25;;;;;;;;;;5043319;28;20052;-81
2022/01/01 06:33:00;;;;;;;21.58;7.38;;;;;;;;;;5058629;28;20100;-81
2022/01/01 06:35:26;;;;;;;20.38;6.90;;;;;;;;;;5033324;28;20076;-81
2022/01/01 06:37:52;;;;;;;20.70;7.30;;;;;;;;;;5025753;28;20373;-81
2022/01/01 06:40:18;;;;;;;20.25;6.95;;;;;;;;;;5026281;28;20045;-83
2022/01/01 06:42:44;;;;;;;21.27;7.03;;;;;;;;;;5025796;28;20033;-82
2022/01/01 06:45:10;;;;;;;19.67;6.63;;;;;;;;;;5026756;28;20058;-83
2022/01/01 06:47:36;;;;;;;16.23;6.30;;;;;;;;;;5044071;28;20060;-82
2022/01/01 06:50:02;;;;;;;15.60;5.78;;;;;;;;;;5028601;28;20373;-82
2022/01/01 06:52:28;;;;;;;15.20;5.85;;;;;;;;;;5042659;28;20075;-81
2022/01/01 06:54:54;;;;;;;16.20;5.93;;;;;;;;;;5044726;28;20036;-82
2022/01/01 06:57:20;;;;;;;18.73;5.70;;;;;;;;;;5027594;28;20399;-82
2022/01/01 06:59:46;;;;;;;16.90;6.00;;;;;;;;;;5027258;28;20037;-82
2022/01/01 07:02:12;;;;;;;16.08;5.70;;;;;;;;;;5028187;28;20033;-82
2022/01/01 07:04:38;;;;;;;13.60;5.30;;;;;;;;;;5027762;28;20044;-82
2022/01/01 07:07:04;;;;;;;13.48;5.43;;;;;;;;;;5046287;28;20049;-83
2022/01/01 07:09:30;;;;;;;18.92;5.50;;;;;;;;;;5030439;28;20095;-81
2022/01/01 07:11:57;;;;;;;15.40;5.60;;;;;;;;;;5028109;28;20388;-82
2022/01/01 07:14:23;;;;;;;13.82;5.25;;;;;;;;;;5046912;28;20040;-82
2022/01/01 07:16:49;;;;;;;16.50;5.20;;;;;;;;;;5034250;28;20053;-81
2022/01/01 07:19:15;;;;;;;14.45;5.22;;;;;;;;;;5045444;28;20037;-82
2022/01/01 07:21:41;;;;;;;15.80;5.15;;;;;;;;;;5028731;28;20033;-82
2022/01/01 07:24:07;;;;;;;19.42;5.65;;;;;;;;;;5037388;28;20102;-82
2022/01/01 07:26:33;;;;;;;17.02;5.43;;;;;;;;;;5052189;28;20047;-82
2022/01/01 07:28:59;;;;;;;12.55;5.65;;;;;;;;;;5025543;28;20150;-81
2022/01/01 07:31:25;;;;;;;16.92;5.07;;;;;;;;;;5025396;28;20124;-82
2022/01/01 07:33:51;;;;;;;18.55;5.22;;;;;;;;;;5026103;28;20037;-82
2022/01/01 07:36:17;;;;;;;17.05;5.15;;;;;;;;;;5043158;28;20074;-82
2022/01/01 07:38:44;;;;;;;12.52;5.05;;;;;;;;;;5044911;28;20048;-83
2022/01/01 07:41:10;;;;;;;18.08;5.13;;;;;;;;;;5043233;28;20033;-82
2022/01/01 07:43:36;;;;;;;12.32;4.75;;;;;;;;;;5042912;28;20040;-80
2022/01/01 07:46:02;;;;;;;14.55;4.97;;;;;;;;;;5026627;28;20036;-83
2022/01/01 07:48:28;;;;;;;14.65;4.55;;;;;;;;;;5042395;28;20059;-81
2022/01/01 07:50:54;;;;;;;12.38;4.63;;;;;;;;;;5026868;28;20373;-82
2022/01/01 07:53:20;;;;;;;12.65;4.38;;;;;;;;;;5043377;28;20041;-82
2022/01/01 07:55:46;;;;;;;15.68;4.78;;;;;;;;;;5060717;28;20037;-82
2022/01/01 07:58:12;;;;;;;12.40;4.20;;;;;;;;;;5060386;28;20033;-83
2022/01/01 08:00:38;;;;;;;17.02;4.82;;;;;;;;;;5042776;28;20060;-83
2022/01/01 08:03:04;;;;;;;17.90;4.43;;;;;;;;;;5024813;28;20497;-83
2022/01/01 08:05:30;;;;;;;19.20;4.70;;;;;;;;;;5025413;28;20047;-84
2022/01/01 08:07:56;;;;;;;16.08;4.35;;;;;;;;;;5025342;28;20068;-84
2022/01/01 08:10:23;;;;;;;13.90;3.92;;;;;;;;;;5043624;28;20095;-83
2022/01/01 08:12:49;;;;;;;16.17;4.22;;;;;;;;;;5040816;28;20071;-84
2022/01/01 08:15:15;;;;;;;16.35;4.03;;;;;;;;;;5041063;28;20437;-84
2022/01/01 08:17:41;;;;;;;16.95;4.30;;;;;;;;;;5031116;28;20029;-83
2022/01/01 08:20:07;;;;;;;12.40;4.32;;;;;;;;;;5027833;28;20037;-85
2022/01/01 08:22:33;;;;;;;12.13;4.57;;;;;;;;;;5025957;28;20040;-84
2022/01/01 08:25:01;;;;;;;13.98;4.10;;;;;;;;;;5027646;28;20063;-84
2022/01/01 08:27:27;;;;;;;12.75;4.03;;;;;;;;;;5025500;28;20499;-83
2022/01/01 08:29:53;;;;;;;16.05;4.22;;;;;;;;;;5024403;28;20037;-83
2022/01/01 08:32:19;;;;;;;11.57;4.13;;;;;;;;;;5060231;28;20109;-83
2022/01/01 08:34:45;;;;;;;13.60;4.13;;;;;;;;;;5059434;28;20075;-84
2022/01/01 08:37:11;;;;;;;13.55;4.40;;;;;;;;;;5027783;28;20041;-84
2022/01/01 08:39:37;;;;;;;15.27;4.35;;;;;;;;;;5047054;28;20507;-83
2022/01/01 08:42:05;;;;;;;16.85;4.50;;;;;;;;;;5032199;28;20041;-83
2022/01/01 08:44:31;;;;;;;14.10;4.07;;;;;;;;;;5045971;28;20116;-80
2022/01/01 08:46:57;;;;;;;11.85;4.20;;;;;;;;;;5042948;28;20041;-81
2022/01/01 08:49:23;;;;;;;14.30;4.13;;;;;;;;;;5042810;28;20056;-83
2022/01/01 08:51:49;;;;;;;14.63;4.10;;;;;;;;;;5024872;28;20048;-82
2022/01/01 08:54:15;;;;;;;16.45;4.30;;;;;;;;;;5041847;28;20115;-81
2022/01/01 08:56:42;;;;;;;10.82;4.13;;;;;;;;;;5026121;28;20456;-81
2022/01/01 08:59:08;;;;;;;15.52;3.85;;;;;;;;;;5041905;28;20045;-80
2022/01/01 09:01:34;;;;;;;12.13;4.00;;;;;;;;;;5059386;28;20041;-82
2022/01/01 09:04:00;;;;;;;15.50;3.80;;;;;;;;;;5040873;28;20037;-82
2022/01/01 09:06:26;;;;;;;10.95;3.53;;;;;;;;;;5042806;28;20033;-82
2022/01/01 09:08:52;;;;;;;10.65;3.92;;;;;;;;;;5064509;28;20056;-82
2022/01/01 09:11:18;;;;;;;15.55;3.78;;;;;;;;;;5064530;28;20071;-81
2022/01/01 09:13:44;;;;;;;17.23;3.85;;;;;;;;;;5031132;28;20037;-83
2022/01/01 09:16:10;;;;;;;20.80;4.22;;;;;;;;;;5046994;28;20128;-83
2022/01/01 09:18:37;;;;;;;11.82;4.18;;;;;;;;;;5030568;28;20037;-80
2022/01/01 09:21:03;;;;;;;14.38;3.90;;;;;;;;;;5047835;28;20096;-81
2022/01/01 09:23:29;;;;;;;14.45;3.85;;;;;;;;;;5029939;28;20091;-81
2022/01/01 09:25:55;;;;;;;11.13;3.67;;;;;;;;;;5047613;28;20040;-81
2022/01/01 09:28:22;;;;;;;10.18;3.50;;;;;;;;;;5048136;28;20037;-82
2022/01/01 09:30:48;;;;;;;11.65;4.03;;;;;;;;;;5031351;28;20468;-80
2022/01/01 09:33:14;;;;;;;9.63;3.28;;;;;;;;;;5029612;28;20037;-83
2022/01/01 09:35:40;;;;;;;12.40;3.70;;;;;;;;;;5029923;28;20041;-84
2022/01/01 09:38:06;;;;;;;14.30;3.53;;;;;;;;;;5063298;28;20060;-82
2022/01/01 09:40:33;;;;;;;20.70;3.75;;;;;;;;;;5045849;28;20033;-82
2022/01/01 09:42:59;;;;;;;11.43;3.42;;;;;;;;;;5030642;28;20044;-81
2022/01/01 09:45:25;;;;;;;14.27;3.60;;;;;;;;;;5046699;28;20103;-84
2022/01/01 09:47:51;;;;;;;14.75;3.40;;;;;;;;;;5045866;28;20448;-84
2022/01/01 09:50:17;;;;;;;10.25;3.45;;;;;;;;;;5029568;28;20373;-81
2022/01/01 09:52:43;;;;;;;13.63;3.55;;;;;;;;;;5030398;28;20105;-82
2022/01/01 09:55:09;;;;;;;13.68;4.10;;;;;;;;;;5046866;28;20099;-81
2022/01/01 09:57:35;;;;;;;11.75;3.35;;;;;;;;;;5029666;28;20364;-82
2022/01/01 10:00:01;;;;;;;12.20;3.40;;;;;;;;;;5028324;28;20037;-82
2022/01/01 10:02:27;;;;;;;12.55;3.33;;;;;;;;;;5045540;28;20429;-83
2022/01/01 10:04:53;;;;;;;12.82;3.50;;;;;;;;;;5045754;28;20072;-83
2022/01/01 10:07:29;;;;;;;9.73;3.20;;;;;;;;;;5063712;28;20049;-79
2022/01/01 10:09:55;;;;;;;13.23;2.92;;;;;;;;;;5028884;28;20065;-83
2022/01/01 10:12:21;;;;;;;14.05;3.30;;;;;;;;;;5028876;28;20064;-83
2022/01/01 10:14:47;;;;;;;9.00;3.17;;;;;;;;;;5029217;28;20437;-82
2022/01/01 10:17:14;;;;;;;13.10;3.00;;;;;;;;;;5062865;28;20419;-83
2022/01/01 10:19:40;;;;;;;10.80;3.30;;;;;;;;;;5044545;28;20123;-82
2022/01/01 10:22:11;;;;;;;11.52;3.05;;;;;;;;;;5028653;28;20538;-84
2022/01/01 10:27:45;;;;;;;10.23;3.20;;;;;;;;;;5031114;28;20072;-81
2022/01/01 10:30:18;;;;;;;10.55;3.00;;;;;;;;;;5048602;28;20437;-84
2022/01/01 10:33:03;;;;;;;7.65;2.83;;;;;;;;;;5046195;28;20045;-85
2022/01/01 10:35:29;;;;;;;7.97;2.80;;;;;;;;;;5028661;28;20507;-81
2022/01/01 10:37:55;;;;;;;12.00;3.05;;;;;;;;;;5061486;28;20033;-81
2022/01/01 10:40:25;;;;;;;15.07;3.08;;;;;;;;;;5043989;28;20118;-82
2022/01/01 10:42:51;;;;;;;10.77;3.30;;;;;;;;;;5044469;28;20044;-81
2022/01/01 10:45:38;;;;;;;10.27;2.60;;;;;;;;;;5044713;28;20063;-81
2022/01/01 10:48:17;;;;;;;11.93;3.45;;;;;;;;;;5061350;28;20140;-83
2022/01/01 10:50:43;;;;;;;10.43;3.00;;;;;;;;;;5028839;28;20452;-81
2022/01/01 10:53:10;;;;;;;8.88;2.55;;;;;;;;;;5027435;28;20060;-81
2022/01/01 10:55:36;;;;;;;10.93;2.85;;;;;;;;;;5044706;28;20087;-81
2022/01/01 10:58:03;;;;;;;8.93;2.60;;;;;;;;;;5028586;28;20037;-81
2022/01/01 11:00:29;;;;;;;9.13;2.50;;;;;;;;;;5027540;28;20469;-80
2022/01/01 11:02:56;;;;;;;9.43;2.72;;;;;;;;;;5044255;28;20049;-81
2022/01/01 11:05:29;;;;;;;10.88;2.70;;;;;;;;;;5026354;28;20037;-82
2022/01/01 11:07:55;;;;;;;8.18;2.72;;;;;;;;;;5043600;28;20040;-81
2022/01/01 11:10:21;;;;;;;11.00;3.17;;;;;;;;;;5025059;28;20037;-81
2022/01/01 11:12:48;;;;;;;8.43;3.00;;;;;;;;;;5026559;28;20045;-81
2022/01/01 11:15:14;;;;;;;13.20;2.92;;;;;;;;;;5043150;28;20063;-81
2022/01/01 11:17:40;;;;;;;8.73;2.53;;;;;;;;;;5028978;28;20033;-81
2022/01/01 11:20:07;;;;;;;9.57;2.83;;;;;;;;;;5045764;28;20090;-80
2022/01/01 11:22:33;;;;;;;10.63;2.88;;;;;;;;;;5027537;28;20036;-80
2022/01/01 11:24:59;;;;;;;10.30;3.03;;;;;;;;;;5045870;28;20056;-81
2022/01/01 11:27:28;;;;;;;8.85;2.78;;;;;;;;;;5029170;28;20036;-80
2022/01/01 11:29:54;;;;;;;7.70;2.70;;;;;;;;;;5026699;28;20036;-82
2022/01/01 11:32:21;;;;;;;10.88;3.03;;;;;;;;;;5043640;28;20037;-81
2022/01/01 11:34:49;;;;;;;10.63;2.70;;;;;;;;;;5025981;28;20040;-81
2022/01/01 11:37:15;;;;;;;9.38;2.80;;;;;;;;;;5043611;28;20047;-82
2022/01/01 11:39:41;;;;;;;8.98;3.05;;;;;;;;;;5026420;28;20049;-82
2022/01/01 11:42:09;;;;;;;10.95;3.72;;;;;;;;;;5042669;28;20072;-82
2022/01/01 11:44:35;;;;;;;8.02;3.05;;;;;;;;;;5043036;28;20056;-83
2022/01/01 11:47:03;;;;;;;7.82;2.92;;;;;;;;;;5028136;28;20045;-81
2022/01/01 11:49:29;;;;;;;7.45;2.88;;;;;;;;;;5040419;28;20063;-82
2022/01/01 11:51:56;;;;;;;13.05;3.30;;;;;;;;;;5027082;28;20040;-81
2022/01/01 11:54:26;;;;;;;9.07;3.00;;;;;;;;;;5027147;28;20045;-82
2022/01/01 11:56:52;;;;;;;12.57;3.97;;;;;;;;;;5043607;28;20041;-83
2022/01/01 11:59:37;;;;;;;10.35;3.40;;;;;;;;;;5043479;28;20048;-81
2022/01/01 12:02:22;;;;;;;9.60;3.33;;;;;;;;;;5061621;28;20032;-80
2022/01/01 12:04:51;;;;;;;9.75;3.08;;;;;;;;;;5043248;28;20102;-82
2022/01/01 12:07:17;;;;;;;8.07;3.03;;;;;;;;;;5043872;28;20045;-82
2022/01/01 12:09:49;;;;;;;10.50;3.10;;;;;;;;;;5043449;28;20135;-80
2022/01/01 12:12:17;;;;;;;14.18;2.80;;;;;;;;;;5060937;28;20041;-81
2022/01/01 12:14:43;;;;;;;8.93;2.47;;;;;;;;;;5043085;28;20048;-81
2022/01/01 12:17:09;;;;;;;7.80;2.50;;;;;;;;;;5043078;28;20051;-81
2022/01/01 12:19:36;;;;;;;7.03;2.72;;;;;;;;;;5027261;28;20037;-81
2022/01/01 12:22:07;;;;;;;8.13;2.67;;;;;;;;;;5027079;28;20037;-82
2022/01/01 12:24:34;;;;;;;9.02;2.80;;;;;;;;;;5027528;28;20119;-81
2022/01/01 12:27:01;;;;;;;10.23;2.63;;;;;;;;;;5025435;28;20045;-81
2022/01/01 12:29:27;;;;;;;8.68;3.00;;;;;;;;;;5041942;28;20140;-82
2022/01/01 12:31:57;;;;;;;7.53;2.33;;;;;;;;;;5043436;28;20040;-82
2022/01/01 12:34:23;;;;;;;8.35;2.80;;;;;;;;;;5027334;28;20650;-79
2022/01/01 12:36:52;;;;;;;7.75;3.10;;;;;;;;;;5045612;28;20032;-81
2022/01/01 12:39:18;;;;;;;8.35;3.10;;;;;;;;;;5059560;28;20032;-80
2022/01/01 12:41:45;;;;;;;10.15;3.25;;;;;;;;;;5056040;28;20037;-80
2022/01/01 12:44:14;;;;;;;8.02;2.60;;;;;;;;;;5028284;28;20092;-81
2022/01/01 12:46:40;;;;;;;6.47;2.67;;;;;;;;;;5043377;28;20048;-80
2022/01/01 12:49:07;;;;;;;9.35;3.05;;;;;;;;;;5045979;28;20057;-79
2022/01/01 12:51:36;;;;;;;12.35;2.80;;;;;;;;;;5030515;28;20045;-80
2022/01/01 12:54:04;;;;;;;9.15;3.05;;;;;;;;;;5029499;28;20059;-80
2022/01/01 12:56:30;;;;;;;7.07;2.50;;;;;;;;;;5046109;28;20072;-80
2022/01/01 12:58:57;;;;;;;7.60;2.70;;;;;;;;;;5047441;28;20048;-80
2022/01/01 13:01:24;;;;;;;8.65;2.97;;;;;;;;;;5035556;28;20066;-80
2022/01/01 13:03:51;;;;;;;6.97;3.00;;;;;;;;;;5038307;28;20047;-80
2022/01/01 13:06:24;;;;;;;6.75;2.65;;;;;;;;;;5054847;28;20041;-80
2022/01/01 13:08:50;;;;;;;7.20;2.67;;;;;;;;;;5039308;28;20045;-80
2022/01/01 13:11:17;;;;;;;8.80;2.85;;;;;;;;;;5030412;28;20037;-80
2022/01/01 13:13:43;;;;;;;7.75;3.30;;;;;;;;;;5044259;28;20047;-79
2022/01/01 13:16:09;;;;;;;6.50;2.65;;;;;;;;;;5029047;28;20060;-80
2022/01/01 13:18:35;;;;;;;7.82;3.10;;;;;;;;;;5045567;28;20052;-81
2022/01/01 13:21:01;;;;;;;6.90;2.63;;;;;;;;;;5032824;28;20033;-81
2022/01/01 13:23:27;;;;;;;9.68;2.85;;;;;;;;;;5031369;28;20059;-81
2022/01/01 13:25:53;;;;;;;7.53;2.63;;;;;;;;;;5033379;28;20052;-81
2022/01/01 13:28:22;;;;;;;6.68;2.55;;;;;;;;;;5057687;28;20088;-80
2022/01/01 13:30:48;;;;;;;9.13;2.70;;;;;;;;;;5060491;28;20025;-80
2022/01/01 13:33:15;;;;;;;9.10;3.10;;;;;;;;;;5043788;28;20116;-79
2022/01/01 13:35:46;;;;;;;7.93;2.60;;;;;;;;;;5026800;28;20441;-80
2022/01/01 13:38:13;;;;;;;7.70;2.83;;;;;;;;;;5042861;28;20094;-81
2022/01/01 13:40:39;;;;;;;7.43;2.88;;;;;;;;;;5026007;28;20258;-80
2022/01/01 13:43:09;;;;;;;11.43;2.88;;;;;;;;;;5042226;28;20045;-79
2022/01/01 13:45:35;;;;;;;9.65;3.00;;;;;;;;;;5043394;28;20048;-80
2022/01/01 13:48:05;;;;;;;11.65;3.03;;;;;;;;;;5042315;28;20119;-80
2022/01/01 13:50:33;;;;;;;11.48;3.10;;;;;;;;;;5042994;28;20087;-80
2022/01/01 13:53:04;;;;;;;9.00;2.80;;;;;;;;;;5025994;28;20064;-81
2022/01/01 13:55:31;;;;;;;9.45;2.60;;;;;;;;;;5045680;28;20037;-80
2022/01/01 13:57:59;;;;;;;10.63;3.30;;;;;;;;;;5029411;28;20071;-81
2022/01/01 14:00:25;;;;;;;7.22;2.70;;;;;;;;;;5029572;28;20083;-80
2022/01/01 14:02:54;;;;;;;10.52;2.95;;;;;;;;;;5045939;28;20036;-80
2022/01/01 14:05:23;;;;;;;6.50;2.72;;;;;;;;;;5046906;28;20055;-80
2022/01/01 14:07:49;;;;;;;7.28;2.60;;;;;;;;;;5031071;28;20044;-81
2022/01/01 14:10:16;;;;;;;6.95;2.47;;;;;;;;;;5029907;28;20037;-80
2022/01/01 14:12:46;;;;;;;6.18;2.70;;;;;;;;;;5030999;28;20037;-80
2022/01/01 14:15:11;;;;;;;5.75;2.63;;;;;;;;;;5047357;28;20124;-79
2022/01/01 14:17:57;;;;;;;9.18;2.90;;;;;;;;;;5050308;28;20041;-79
2022/01/01 14:20:27;;;;;;;8.68;3.63;;;;;;;;;;5062809;28;20044;-80
2022/01/01 14:22:53;;;;;;;8.68;3.80;;;;;;;;;;5028125;28;20061;-79
2022/01/01 14:25:19;;;;;;;9.45;3.00;;;;;;;;;;5026531;28;20040;-80
2022/01/01 14:27:45;;;;;;;8.50;3.53;;;;;;;;;;5027176;28;20124;-80
2022/01/01 14:30:11;;;;;;;6.32;2.78;;;;;;;;;;5064091;28;20080;-81
2022/01/01 14:32:37;;;;;;;7.53;3.13;;;;;;;;;;5045901;28;20102;-80
2022/01/01 14:35:03;;;;;;;9.02;3.28;;;;;;;;;;5028981;28;20029;-79